Banner Elk, NC

1:41 PM EDT on August 30, 2014 (GMT -0400)
Seven Devils, NC | Change Station
CLOSE
Current Station
Personal Weather Station
Location: Seven Devils, NC
Elevation: 4262 ft
Nearby Weather Stations

Elev 4262 ft 36.14 °N, 81.83 °W | Updated 11 seconds ago

Partly Cloudy
Partly Cloudy
70.9 °F
Feels Like 73 °F
N
6.0
Wind Variable Wind from North
Gusts 8.0 mph

Today
High -- | Low -- °F
--% Chance of Precip.
Yesterday
High -- | Low -- °F
Precip. -- in
6:57 AM 7:57 PM
Waxing Crescent, 23% visible
Pressure 30.32 in
Visibility 10.0 miles
Clouds Scattered Clouds 2900 ft
Heat Index 73 °F
Dew Point 63 °F
Humidity 75%
Rainfall 0.00 in
Snow Depth Not available.
UV 9 out of 12
Pollen 9.30 out of 12
Air Quality Not available.
Flu Activity Not available.
METAR KTNB 301735Z AUTO 17005KT 10SM SCT029 27/16 A3032 RMK AO2 T02650159

More Conditions Fewer Conditions

Pressure 30.32 in
Visibility 10.0 miles
Clouds Scattered Clouds 2900 ft
Heat Index 73 °F
Dew Point 63 °F
Humidity 75%
Rainfall 0.00 in
Snow Depth Not available.
UV 9 out of 12
Pollen 9.30 out of 12
Air Quality Not available.
Flu Activity Not available.
METAR KTNB 301735Z AUTO 17005KT 10SM SCT029 27/16 A3032 RMK AO2 T02650159

More Conditions Fewer Conditions

10-Day Weather Forecast

Almanac

Astronomy

Aug. 30, 2014 Rise Set
Actual Time 6:57 AM EDT 7:57 PM EDT
Civil Twilight 6:30 AM EDT 8:24 PM EDT
Nautical Twilight 5:59 AM EDT 8:55 PM EDT
Astronomical Twilight 5:27 AM EDT 9:27 PM EDT
Moon 11:34 AM EDT 10:41 PM EDT
Length of Visible Light 13h 53m
Length of Day
13h 00m
Tomorrow will be 2m 11s shorter.
Waxing Crescent, 23% of the Moon is Illuminated
Today
Waxing Crescent
Sep 2
First Quarter
Sep 8
Full
Sep 15
Last Quarter
Sep 24
New

Today's Extremes

State Highs State Lows

Community

WunderPhotos

Upload Photos

1,748,581 photos uploaded!

WunderBlogs® & News

Nearby

Snow Depth

Station Depth Elevation
No new snow has been reported.

Earthquake Activity

City Distance Mag. Time & Date
No recent earthquake activity has been reported nearby.
Minimum magnitude displayed is 2.5.

Coastal Water Temperatures

Place Temperature
No Stations Reporting

Nearby Weather Stations